Time;durP1;ratioP1;P1;durP2;ratioP2;P2;SDS_P1;SDS_P2;PMS_P1;PMS_P2;Temp;Humidity;BMP_temperature;BMP_pressure;BME280_temperature;BME280_humidity;BME280_pressure;Samples;Min_cycle;Max_cycle;Signal;HPM_P1;HPM_P2
2021/07/31 00:02:19;;;;;;;8.93;8.02;;;19.40;99.90;;;;;;5003587;28;20097;-74
2021/07/31 00:04:45;;;;;;;10.95;8.55;;;19.50;99.90;;;;;;4997395;28;20440;-74
2021/07/31 00:07:10;;;;;;;9.35;8.35;;;19.60;99.90;;;;;;5001178;28;20026;-74
2021/07/31 00:09:36;;;;;;;12.23;9.07;;;19.60;99.90;;;;;;5005941;28;20473;-74
2021/07/31 00:12:02;;;;;;;11.35;8.93;;;19.50;99.90;;;;;;5009967;28;20102;-74
2021/07/31 00:14:31;;;;;;;10.93;9.18;;;19.30;99.90;;;;;;5007819;28;20022;-74
2021/07/31 00:16:57;;;;;;;11.50;9.15;;;19.30;99.90;;;;;;5012583;28;20500;-74
2021/07/31 00:19:22;;;;;;;12.10;9.05;;;19.00;99.90;;;;;;5009450;28;20053;-74
2021/07/31 00:21:48;;;;;;;13.10;8.85;;;19.10;99.90;;;;;;4999232;28;20089;-74
2021/07/31 00:24:13;;;;;;;10.40;9.30;;;19.00;99.90;;;;;;5004217;28;20025;-73
2021/07/31 00:26:39;;;;;;;10.52;8.15;;;19.30;99.90;;;;;;5009269;28;20041;-73
2021/07/31 00:29:05;;;;;;;10.55;7.82;;;19.40;99.90;;;;;;5011563;28;20052;-73
2021/07/31 00:31:30;;;;;;;10.63;8.65;;;19.40;99.90;;;;;;5004656;28;20504;-73
2021/07/31 00:33:56;;;;;;;11.23;8.10;;;19.20;99.90;;;;;;5012216;28;20029;-73
2021/07/31 00:36:22;;;;;;;9.98;7.13;;;19.20;99.90;;;;;;5008056;28;20408;-76
2021/07/31 00:38:47;;;;;;;9.68;7.40;;;19.30;99.90;;;;;;5009640;28;20101;-75
2021/07/31 00:41:13;;;;;;;7.40;6.60;;;19.30;99.90;;;;;;4994135;28;20128;-74
2021/07/31 00:43:38;;;;;;;8.98;7.10;;;19.30;99.90;;;;;;5001211;28;20568;-73
2021/07/31 00:46:04;;;;;;;8.00;6.30;;;19.40;99.90;;;;;;4997684;28;20026;-73
2021/07/31 00:48:30;;;;;;;7.07;5.40;;;19.40;99.90;;;;;;5003817;28;20031;-73
2021/07/31 00:50:55;;;;;;;6.80;5.65;;;19.50;99.90;;;;;;5004490;28;20038;-74
2021/07/31 00:53:22;;;;;;;6.72;5.15;;;19.50;99.90;;;;;;5000980;28;20033;-73
2021/07/31 00:55:48;;;;;;;7.40;4.70;;;19.50;99.90;;;;;;4995703;28;20492;-73
2021/07/31 00:58:14;;;;;;;6.00;4.20;;;19.50;99.90;;;;;;5001040;28;20045;-74
2021/07/31 01:00:39;;;;;;;9.35;4.38;;;19.50;99.90;;;;;;5012038;28;20073;-74
2021/07/31 01:03:05;;;;;;;7.85;4.25;;;19.40;99.90;;;;;;5002503;28;20034;-74
2021/07/31 01:05:30;;;;;;;6.63;4.38;;;19.50;99.90;;;;;;4994128;28;20031;-75
2021/07/31 01:07:56;;;;;;;5.80;4.15;;;19.30;99.90;;;;;;5010779;28;20077;-75
2021/07/31 01:10:22;;;;;;;5.38;4.30;;;19.30;99.90;;;;;;4998743;28;20112;-76
2021/07/31 01:12:49;;;;;;;3.97;3.58;;;19.30;99.90;;;;;;5002352;28;20027;-74
2021/07/31 01:15:15;;;;;;;5.18;3.85;;;19.30;99.90;;;;;;4994035;28;20030;-74
2021/07/31 01:17:41;;;;;;;6.38;3.80;;;19.20;99.90;;;;;;5010667;28;20492;-74
2021/07/31 01:20:07;;;;;;;4.55;3.70;;;19.30;99.90;;;;;;5009029;28;20053;-74
2021/07/31 01:22:33;;;;;;;8.05;3.90;;;19.30;99.90;;;;;;5000452;28;20026;-75
2021/07/31 01:25:00;;;;;;;5.82;3.90;;;19.20;99.90;;;;;;4996887;28;20034;-75
2021/07/31 01:27:26;;;;;;;4.70;3.90;;;19.20;99.90;;;;;;5000728;28;20113;-75
2021/07/31 01:29:55;;;;;;;4.88;3.88;;;19.10;99.90;;;;;;5010002;28;20120;-76
2021/07/31 01:32:20;;;;;;;6.07;4.13;;;19.00;99.90;;;;;;5001069;28;20069;-76
2021/07/31 01:34:46;;;;;;;7.72;3.80;;;18.90;99.90;;;;;;4997182;28;20058;-76
2021/07/31 01:37:11;;;;;;;7.18;4.05;;;18.90;99.90;;;;;;5011783;28;20037;-77
2021/07/31 01:39:37;;;;;;;6.55;4.00;;;19.00;99.90;;;;;;5010441;28;20068;-76
2021/07/31 01:42:05;;;;;;;5.85;4.20;;;19.00;99.90;;;;;;5001668;28;20492;-76
2021/07/31 01:44:31;;;;;;;7.65;4.45;;;18.90;99.90;;;;;;5009262;28;20022;-76
2021/07/31 01:46:56;;;;;;;6.22;4.20;;;19.00;99.90;;;;;;5006450;28;20027;-76
2021/07/31 01:49:22;;;;;;;9.43;4.90;;;18.90;99.90;;;;;;4997993;28;20046;-77
2021/07/31 01:51:47;;;;;;;5.47;4.93;;;18.90;99.90;;;;;;5006445;28;20096;-76
2021/07/31 01:54:13;;;;;;;6.93;4.82;;;18.60;99.90;;;;;;5011433;28;20818;-77
2021/07/31 01:56:38;;;;;;;6.32;4.95;;;18.60;99.90;;;;;;5006184;28;20026;-77
2021/07/31 01:59:04;;;;;;;7.18;4.95;;;18.60;99.90;;;;;;5008772;28;20032;-76
2021/07/31 02:01:29;;;;;;;7.55;4.78;;;18.50;99.90;;;;;;5003925;28;20026;-77
2021/07/31 02:03:55;;;;;;;7.28;5.10;;;18.40;99.90;;;;;;5013842;28;20029;-76
2021/07/31 02:06:20;;;;;;;5.78;4.68;;;18.40;99.90;;;;;;5014934;28;20026;-76
2021/07/31 02:08:46;;;;;;;6.57;5.28;;;18.50;99.90;;;;;;5013288;28;20484;-76
2021/07/31 02:11:12;;;;;;;8.63;5.03;;;18.50;99.90;;;;;;5003332;28;20075;-77
2021/07/31 02:13:38;;;;;;;7.13;4.88;;;18.50;99.90;;;;;;4999054;28;20117;-76
2021/07/31 02:16:04;;;;;;;8.35;4.75;;;18.50;99.90;;;;;;5003110;28;20490;-75
2021/07/31 02:18:30;;;;;;;7.30;5.35;;;18.50;99.90;;;;;;5011816;28;20026;-76
2021/07/31 02:20:55;;;;;;;6.53;5.30;;;18.40;99.90;;;;;;5003122;28;20025;-75
2021/07/31 02:23:21;;;;;;;6.55;5.32;;;18.40;99.90;;;;;;5001509;28;20584;-75
2021/07/31 02:25:46;;;;;;;7.07;5.03;;;18.30;99.90;;;;;;5014508;28;20151;-75
2021/07/31 02:28:12;;;;;;;6.70;5.30;;;18.20;99.90;;;;;;5013253;28;20092;-76
2021/07/31 02:30:38;;;;;;;6.28;5.35;;;18.00;99.90;;;;;;4995073;28;20507;-75
2021/07/31 02:33:03;;;;;;;9.15;5.63;;;18.00;99.90;;;;;;5009500;28;20034;-75
2021/07/31 02:35:33;;;;;;;5.57;4.53;;;17.90;99.90;;;;;;5006277;28;20026;-76
2021/07/31 02:38:03;;;;;;;6.45;5.22;;;17.90;99.90;;;;;;5010367;28;20022;-75
2021/07/31 02:40:29;;;;;;;7.70;5.28;;;17.90;99.90;;;;;;5014420;28;20101;-76
2021/07/31 02:42:55;;;;;;;7.40;5.28;;;17.90;99.90;;;;;;5010897;28;20128;-76
2021/07/31 02:45:21;;;;;;;6.97;4.85;;;17.90;99.90;;;;;;4993475;28;20026;-75
2021/07/31 02:47:46;;;;;;;7.32;5.50;;;18.00;99.90;;;;;;5008005;28;20488;-76
2021/07/31 02:50:12;;;;;;;6.65;5.13;;;18.10;99.90;;;;;;4994514;28;20038;-76
2021/07/31 02:52:37;;;;;;;8.23;5.25;;;18.00;99.90;;;;;;4994643;28;20037;-76
2021/07/31 02:55:03;;;;;;;7.40;5.40;;;18.00;99.90;;;;;;4994103;28;20038;-76
2021/07/31 02:57:29;;;;;;;10.23;5.32;;;18.00;99.90;;;;;;4994569;28;20068;-76
2021/07/31 02:59:55;;;;;;;9.07;5.00;;;18.00;99.90;;;;;;5002588;28;20160;-77
2021/07/31 03:02:21;;;;;;;5.65;4.78;;;17.90;99.90;;;;;;5001307;28;20109;-76
2021/07/31 03:04:47;;;;;;;7.93;5.10;;;17.80;99.90;;;;;;5014554;28;20026;-76
2021/07/31 03:07:12;;;;;;;5.15;4.65;;;17.70;99.90;;;;;;5000777;28;20077;-76
2021/07/31 03:09:38;;;;;;;5.80;5.10;;;17.50;99.90;;;;;;5013820;28;20033;-76
2021/07/31 03:12:03;;;;;;;8.82;6.00;;;17.50;99.90;;;;;;5000762;28;20032;-76
2021/07/31 03:14:29;;;;;;;6.50;5.22;;;17.50;99.90;;;;;;5004771;28;20023;-75
2021/07/31 03:16:54;;;;;;;9.05;5.50;;;17.40;99.90;;;;;;5007244;28;20033;-75
2021/07/31 03:19:20;;;;;;;9.88;5.50;;;16.90;99.90;;;;;;5002525;28;20026;-76
2021/07/31 03:21:45;;;;;;;6.03;5.25;;;17.00;99.90;;;;;;5011740;28;20029;-75
2021/07/31 03:24:11;;;;;;;7.40;5.50;;;17.00;99.90;;;;;;5002335;28;20030;-75
2021/07/31 03:26:36;;;;;;;5.97;5.38;;;17.10;99.90;;;;;;5000300;28;20034;-76
2021/07/31 03:29:02;;;;;;;6.82;5.72;;;17.20;99.90;;;;;;5005159;28;20045;-76
2021/07/31 03:31:28;;;;;;;6.75;4.88;;;17.00;99.90;;;;;;4993912;28;20041;-75
2021/07/31 03:33:53;;;;;;;8.02;5.38;;;17.00;99.90;;;;;;4993899;28;20060;-76
2021/07/31 03:36:19;;;;;;;10.98;5.90;;;17.00;99.90;;;;;;4994671;28;20034;-76
2021/07/31 03:38:44;;;;;;;8.27;6.05;;;17.10;99.90;;;;;;5005409;28;20037;-75
2021/07/31 03:41:10;;;;;;;6.45;5.72;;;17.10;99.90;;;;;;4999909;28;20030;-75
2021/07/31 03:43:36;;;;;;;9.38;5.65;;;17.00;99.90;;;;;;5005485;28;20492;-75
2021/07/31 03:46:06;;;;;;;7.53;5.88;;;17.00;99.90;;;;;;5006734;28;20033;-75
2021/07/31 03:48:32;;;;;;;9.63;5.90;;;17.00;99.90;;;;;;4992240;28;20026;-76
2021/07/31 03:50:58;;;;;;;7.65;5.38;;;17.00;99.90;;;;;;4994005;28;20041;-75
2021/07/31 03:53:23;;;;;;;7.45;4.90;;;16.90;99.90;;;;;;5001441;28;20034;-75
2021/07/31 03:55:49;;;;;;;5.60;4.93;;;16.60;99.90;;;;;;5012830;28;20152;-76
2021/07/31 03:58:15;;;;;;;8.50;5.60;;;16.80;99.90;;;;;;5009464;28;20477;-76
2021/07/31 04:00:42;;;;;;;6.80;5.05;;;16.80;99.90;;;;;;5006822;28;20123;-75
2021/07/31 04:03:08;;;;;;;6.07;4.95;;;16.90;99.90;;;;;;5002330;28;20415;-75
2021/07/31 04:05:33;;;;;;;6.82;5.07;;;16.90;99.90;;;;;;5009221;28;20117;-74
2021/07/31 04:07:59;;;;;;;7.03;4.88;;;16.90;99.90;;;;;;5001321;28;20113;-75
2021/07/31 04:10:24;;;;;;;7.00;5.20;;;16.80;99.90;;;;;;4998118;28;20121;-75
2021/07/31 04:12:50;;;;;;;7.32;5.40;;;16.60;99.90;;;;;;5004334;28;20097;-74
2021/07/31 04:15:16;;;;;;;7.53;4.88;;;16.30;99.90;;;;;;5005952;28;20555;-74
2021/07/31 04:17:41;;;;;;;8.05;5.40;;;16.50;99.90;;;;;;4993120;28;20026;-75
2021/07/31 04:20:07;;;;;;;5.82;5.03;;;16.50;99.90;;;;;;5005941;28;20424;-74
2021/07/31 04:22:33;;;;;;;6.63;5.15;;;16.40;99.90;;;;;;5000927;28;20112;-73
2021/07/31 04:24:58;;;;;;;6.28;5.32;;;16.40;99.90;;;;;;4997951;28;20026;-74
2021/07/31 04:27:25;;;;;;;8.05;4.93;;;16.50;99.90;;;;;;5003321;28;20054;-74
2021/07/31 04:29:51;;;;;;;7.60;4.93;;;16.30;99.90;;;;;;5005807;28;20112;-73
2021/07/31 04:32:16;;;;;;;7.05;5.20;;;16.40;99.90;;;;;;4992831;28;20174;-73
2021/07/31 04:34:42;;;;;;;6.03;4.93;;;16.40;99.90;;;;;;5005674;28;20025;-74
2021/07/31 04:37:07;;;;;;;6.10;4.90;;;16.60;99.90;;;;;;4998978;28;20026;-73
2021/07/31 04:39:33;;;;;;;6.50;4.32;;;16.60;99.90;;;;;;5011302;28;20030;-74
2021/07/31 04:41:59;;;;;;;9.02;4.32;;;16.70;99.90;;;;;;5000271;28;20072;-74
2021/07/31 04:44:25;;;;;;;4.85;4.30;;;16.70;99.90;;;;;;4997552;28;20033;-74
2021/07/31 04:46:50;;;;;;;8.25;4.97;;;16.80;99.90;;;;;;5004658;28;20108;-74
2021/07/31 04:49:16;;;;;;;7.53;4.53;;;16.90;99.90;;;;;;4992280;28;20147;-74
2021/07/31 04:51:43;;;;;;;4.50;4.10;;;16.90;99.90;;;;;;5003407;28;20076;-72
2021/07/31 04:54:09;;;;;;;6.57;4.85;;;16.80;99.90;;;;;;4992513;28;20027;-73
2021/07/31 04:56:34;;;;;;;7.55;4.40;;;16.70;99.90;;;;;;4992400;28;20080;-73
2021/07/31 04:59:00;;;;;;;4.53;3.90;;;16.70;99.90;;;;;;5005859;28;20103;-73
2021/07/31 05:01:25;;;;;;;6.80;4.28;;;16.70;99.90;;;;;;4999741;28;20387;-73
2021/07/31 05:03:51;;;;;;;6.43;4.70;;;16.60;99.90;;;;;;4998339;28;20548;-73
2021/07/31 05:06:16;;;;;;;8.25;4.53;;;16.60;99.90;;;;;;5000137;28;20113;-73
2021/07/31 05:08:42;;;;;;;7.80;4.03;;;16.70;99.90;;;;;;4998922;28;20041;-73
2021/07/31 05:11:08;;;;;;;5.90;3.90;;;16.70;99.90;;;;;;5004020;28;20105;-72
2021/07/31 05:13:37;;;;;;;4.45;3.67;;;16.70;99.90;;;;;;4986119;28;20026;-73
2021/07/31 05:16:03;;;;;;;6.78;4.22;;;16.80;99.90;;;;;;5000101;28;20033;-73
2021/07/31 05:18:29;;;;;;;7.57;4.00;;;16.90;99.90;;;;;;4998867;28;20376;-71
2021/07/31 05:20:54;;;;;;;6.93;3.97;;;16.90;99.90;;;;;;5008097;28;20030;-76
2021/07/31 05:23:20;;;;;;;5.28;3.90;;;17.00;99.90;;;;;;5008331;28;20117;-73
2021/07/31 05:25:45;;;;;;;6.35;3.58;;;17.10;99.90;;;;;;5004032;28;20081;-73
2021/07/31 05:28:15;;;;;;;5.43;3.75;;;17.10;99.90;;;;;;5001249;28;20106;-74
2021/07/31 05:30:41;;;;;;;7.03;3.75;;;17.10;99.90;;;;;;4995986;28;20039;-72
2021/07/31 05:33:07;;;;;;;6.72;3.50;;;17.20;99.90;;;;;;5009388;28;20033;-73
2021/07/31 05:35:33;;;;;;;7.47;3.35;;;17.30;99.90;;;;;;5004053;28;20034;-73
2021/07/31 05:37:59;;;;;;;6.47;3.92;;;17.30;99.90;;;;;;5002246;28;20088;-74
2021/07/31 05:40:25;;;;;;;5.80;3.58;;;17.40;99.90;;;;;;5007416;28;20381;-73
2021/07/31 05:42:50;;;;;;;5.63;3.35;;;17.50;99.90;;;;;;5009079;28;20032;-73
2021/07/31 05:45:16;;;;;;;6.78;3.28;;;17.40;99.90;;;;;;5003390;28;20034;-73
2021/07/31 05:47:41;;;;;;;4.50;2.92;;;17.40;99.90;;;;;;5001178;28;20401;-71
2021/07/31 05:50:08;;;;;;;6.28;3.00;;;17.50;99.90;;;;;;4995592;28;20089;-71
2021/07/31 05:52:35;;;;;;;4.53;3.15;;;17.60;99.90;;;;;;5007339;28;20083;-73
2021/07/31 05:55:02;;;;;;;4.05;3.20;;;17.50;99.90;;;;;;5003390;28;20447;-74
2021/07/31 05:57:28;;;;;;;3.85;2.60;;;17.50;99.90;;;;;;5002047;28;20117;-73
2021/07/31 05:59:53;;;;;;;5.80;2.90;;;17.70;99.90;;;;;;5007283;28;20449;-73
2021/07/31 06:02:19;;;;;;;8.05;2.92;;;17.70;99.90;;;;;;5007166;28;20117;-73
2021/07/31 06:04:44;;;;;;;4.45;2.72;;;17.70;99.90;;;;;;4994007;28;20022;-73
2021/07/31 06:07:11;;;;;;;7.13;2.97;;;17.70;99.90;;;;;;5008597;28;20030;-73
2021/07/31 06:09:38;;;;;;;3.97;2.63;;;17.80;99.90;;;;;;5003945;28;20026;-73
2021/07/31 06:12:05;;;;;;;4.25;2.90;;;17.90;99.90;;;;;;5000239;28;20057;-73
2021/07/31 06:14:33;;;;;;;4.38;2.60;;;18.00;99.90;;;;;;4995577;28;20113;-73
2021/07/31 06:16:59;;;;;;;5.07;2.47;;;18.10;99.90;;;;;;4996945;28;20492;-74
2021/07/31 06:19:25;;;;;;;8.65;2.70;;;18.10;99.90;;;;;;5004460;28;20030;-73
2021/07/31 06:21:50;;;;;;;6.28;2.10;;;18.20;99.90;;;;;;5001301;28;20127;-73
2021/07/31 06:24:16;;;;;;;7.00;2.58;;;18.20;99.90;;;;;;5005717;28;20397;-73
2021/07/31 06:26:42;;;;;;;6.15;2.33;;;18.30;99.90;;;;;;5006910;28;20025;-73
2021/07/31 06:29:07;;;;;;;3.53;1.77;;;18.30;99.90;;;;;;5001437;28;20037;-73
2021/07/31 06:31:33;;;;;;;5.30;2.10;;;18.10;99.90;;;;;;4999558;28;20035;-73
2021/07/31 06:33:58;;;;;;;6.97;2.25;;;18.30;99.90;;;;;;5005267;28;20037;-73
2021/07/31 06:36:24;;;;;;;3.83;2.00;;;18.40;99.90;;;;;;5006661;28;20369;-73
2021/07/31 06:38:50;;;;;;;4.00;1.83;;;18.40;99.90;;;;;;5002553;28;20029;-73
2021/07/31 06:41:16;;;;;;;5.88;1.83;;;18.40;99.90;;;;;;4999385;28;20026;-74
2021/07/31 06:43:42;;;;;;;4.30;1.70;;;18.40;99.90;;;;;;5004098;28;20161;-74
2021/07/31 06:46:16;;;;;;;7.70;2.15;;;18.40;99.90;;;;;;5007668;28;20033;-73
2021/07/31 06:48:42;;;;;;;5.10;2.38;;;18.60;99.90;;;;;;5004389;28;20022;-72
2021/07/31 06:51:09;;;;;;;4.78;1.63;;;18.60;99.90;;;;;;5001202;28;20117;-73
2021/07/31 06:53:38;;;;;;;4.82;2.13;;;18.50;99.90;;;;;;5004032;28;20030;-73
2021/07/31 06:56:04;;;;;;;4.07;1.90;;;18.50;99.90;;;;;;5007672;28;20034;-73
2021/07/31 06:58:29;;;;;;;5.07;2.03;;;18.60;99.90;;;;;;5003391;28;20026;-73
2021/07/31 07:00:55;;;;;;;2.78;1.95;;;18.60;99.90;;;;;;4997327;28;20034;-73
2021/07/31 07:03:21;;;;;;;5.75;1.70;;;18.80;99.90;;;;;;4994346;28;20026;-73
2021/07/31 07:05:47;;;;;;;3.22;1.60;;;18.90;99.90;;;;;;4997994;28;20041;-73
2021/07/31 07:08:12;;;;;;;4.70;1.73;;;18.90;99.90;;;;;;5003783;28;20035;-73
2021/07/31 07:10:38;;;;;;;6.32;1.70;;;19.00;99.90;;;;;;5007086;28;20045;-73
2021/07/31 07:13:04;;;;;;;3.95;1.60;;;19.00;99.90;;;;;;5004429;28;20037;-73
2021/07/31 07:15:30;;;;;;;3.85;1.73;;;19.10;99.90;;;;;;4996801;28;20089;-73
2021/07/31 07:17:56;;;;;;;3.85;1.75;;;19.00;99.90;;;;;;4994335;28;20044;-72
2021/07/31 07:20:23;;;;;;;4.03;1.30;;;19.00;99.90;;;;;;4997594;28;20018;-73
2021/07/31 07:22:48;;;;;;;5.35;1.65;;;19.20;99.90;;;;;;5003444;28;20375;-72
2021/07/31 07:25:14;;;;;;;4.68;2.00;;;19.10;99.90;;;;;;5005819;28;20042;-73
2021/07/31 07:27:40;;;;;;;3.35;1.50;;;19.10;99.90;;;;;;5004169;28;20029;-73
2021/07/31 07:30:06;;;;;;;3.92;1.40;;;19.20;99.90;;;;;;5000071;28;20104;-73
2021/07/31 07:32:34;;;;;;;3.45;1.40;;;19.40;99.90;;;;;;5003287;28;20442;-73
2021/07/31 07:34:59;;;;;;;2.15;1.23;;;19.20;99.90;;;;;;5006813;28;20034;-73
2021/07/31 07:37:25;;;;;;;4.65;1.35;;;19.30;99.90;;;;;;5003788;28;20029;-73
2021/07/31 07:39:50;;;;;;;4.03;1.52;;;19.50;99.90;;;;;;5010079;28;20802;-73
2021/07/31 07:42:16;;;;;;;3.55;1.45;;;19.30;99.90;;;;;;4992671;28;20031;-72
2021/07/31 07:44:41;;;;;;;3.05;1.30;;;19.40;99.90;;;;;;4993295;28;20026;-73
2021/07/31 07:47:09;;;;;;;3.38;1.30;;;19.50;99.90;;;;;;4993612;28;20122;-73
2021/07/31 07:49:34;;;;;;;3.70;1.63;;;19.50;99.90;;;;;;5006551;28;20065;-73
2021/07/31 07:52:00;;;;;;;3.28;1.40;;;19.40;99.90;;;;;;5002586;28;20543;-73
2021/07/31 07:54:28;;;;;;;3.55;1.38;;;19.60;99.90;;;;;;4997905;28;20025;-72
2021/07/31 07:56:53;;;;;;;3.53;1.27;;;19.80;99.90;;;;;;5005983;28;20029;-73
2021/07/31 07:59:19;;;;;;;2.22;1.30;;;19.60;99.90;;;;;;4999823;28;20494;-73
2021/07/31 08:01:45;;;;;;;2.22;1.20;;;19.60;99.90;;;;;;5008940;28;20108;-73
2021/07/31 08:04:10;;;;;;;2.67;1.17;;;19.50;99.90;;;;;;4996537;28;20098;-73
2021/07/31 08:06:37;;;;;;;2.75;1.40;;;19.50;99.90;;;;;;4998265;28;20419;-73
2021/07/31 08:09:02;;;;;;;3.95;1.67;;;19.50;99.90;;;;;;4997693;28;20488;-73
2021/07/31 08:11:28;;;;;;;1.70;1.27;;;19.20;99.90;;;;;;5001270;28;20033;-73
2021/07/31 08:13:53;;;;;;;3.22;1.73;;;19.40;99.90;;;;;;4994323;28;20068;-73
2021/07/31 08:16:19;;;;;;;2.60;1.55;;;19.60;99.90;;;;;;5000529;28;20518;-73
2021/07/31 08:18:45;;;;;;;4.32;1.40;;;19.60;99.90;;;;;;5006662;28;20018;-73
2021/07/31 08:21:10;;;;;;;4.15;1.40;;;19.50;99.90;;;;;;5003328;28;20080;-73
2021/07/31 08:23:36;;;;;;;5.28;1.48;;;19.60;99.90;;;;;;4999256;28;20026;-73
2021/07/31 08:26:04;;;;;;;4.32;1.50;;;19.70;99.90;;;;;;5000997;28;20058;-73
2021/07/31 08:28:30;;;;;;;2.13;1.27;;;19.70;99.90;;;;;;5006157;28;20022;-73
2021/07/31 08:30:56;;;;;;;2.63;1.40;;;19.90;99.90;;;;;;5003028;28;20037;-73
2021/07/31 08:33:21;;;;;;;4.18;1.38;;;19.30;99.90;;;;;;4997997;28;20038;-73
2021/07/31 08:35:47;;;;;;;2.67;1.45;;;19.30;99.90;;;;;;5000288;28;20441;-73
2021/07/31 08:38:12;;;;;;;2.70;1.58;;;19.30;99.90;;;;;;4992574;28;20025;-73
2021/07/31 08:40:38;;;;;;;4.93;1.70;;;19.70;99.90;;;;;;4992218;28;20492;-73
2021/07/31 08:43:05;;;;;;;7.03;1.30;;;19.80;99.90;;;;;;4991318;28;20038;-73
2021/07/31 08:45:32;;;;;;;2.10;1.40;;;19.70;99.90;;;;;;5002372;28;20026;-73
2021/07/31 08:47:59;;;;;;;4.18;1.52;;;19.40;99.90;;;;;;5008780;28;20033;-73
2021/07/31 08:50:26;;;;;;;4.80;1.55;;;19.50;99.90;;;;;;4992365;28;20115;-73
2021/07/31 08:52:55;;;;;;;3.13;1.58;;;19.60;99.90;;;;;;4990969;28;20030;-73
2021/07/31 08:55:20;;;;;;;2.95;1.40;;;19.60;99.90;;;;;;4992317;28;20022;-73
2021/07/31 08:57:46;;;;;;;3.58;1.60;;;19.90;99.90;;;;;;5004480;28;20029;-73
2021/07/31 09:00:12;;;;;;;2.88;1.45;;;19.80;99.90;;;;;;5002856;28;20026;-73
2021/07/31 09:02:43;;;;;;;3.22;1.50;;;19.70;99.90;;;;;;4998770;28;20026;-73
2021/07/31 09:05:11;;;;;;;2.05;1.25;;;20.00;99.90;;;;;;5000069;28;20081;-73
2021/07/31 09:07:36;;;;;;;3.00;1.60;;;20.30;99.90;;;;;;5004189;28;20048;-73
2021/07/31 09:10:21;;;;;;;5.13;2.05;;;20.90;99.90;;;;;;5004327;28;20551;-73
2021/07/31 09:12:54;;;;;;;3.17;1.50;;;20.50;99.90;;;;;;4988676;28;20037;-73
2021/07/31 09:15:36;;;;;;;1.58;1.38;;;20.50;99.90;;;;;;4996067;28;20071;-73
2021/07/31 09:18:22;;;;;;;2.75;1.40;;;20.10;99.90;;;;;;4992382;28;20027;-73
2021/07/31 09:21:05;;;;;;;1.52;1.38;;;20.00;99.90;;;;;;4979496;28;20022;-73
2021/07/31 09:23:50;;;;;;;5.40;1.50;;;19.80;99.90;;;;;;4992210;28;20032;-74
2021/07/31 09:26:35;;;;;;;3.17;1.40;;;20.40;99.90;;;;;;5003506;28;20113;-73
2021/07/31 09:29:08;;;;;;;4.30;1.70;;;20.60;99.90;;;;;;5003150;28;20767;-73
2021/07/31 09:31:49;;;;;;;5.38;1.58;;;20.40;99.90;;;;;;5000679;28;20026;-73
2021/07/31 09:34:45;;;;;;;4.60;1.77;;;20.50;99.90;;;;;;5008289;28;20026;-73
2021/07/31 09:37:23;;;;;;;2.55;1.60;;;20.60;99.90;;;;;;5004841;28;20041;-73
2021/07/31 09:40:02;;;;;;;2.72;1.40;;;20.40;99.90;;;;;;5008049;28;20543;-73
2021/07/31 09:42:33;;;;;;;2.10;1.50;;;21.00;99.90;;;;;;5012269;28;20029;-73
2021/07/31 09:45:05;;;;;;;3.47;1.58;;;21.10;99.90;;;;;;5000643;28;20022;-73
2021/07/31 09:47:30;;;;;;;8.52;1.48;;;20.70;99.90;;;;;;5012018;28;20375;-72
2021/07/31 09:49:58;;;;;;;4.03;1.50;;;20.80;99.90;;;;;;5005370;28;20105;-73
2021/07/31 09:52:24;;;;;;;2.00;1.30;;;21.30;99.90;;;;;;4997317;28;20046;-73
2021/07/31 09:54:51;;;;;;;5.50;2.20;;;21.40;99.90;;;;;;5010890;28;20026;-73
2021/07/31 09:57:17;;;;;;;3.05;1.73;;;21.70;99.90;;;;;;5006364;28;20030;-73
2021/07/31 09:59:45;;;;;;;3.97;1.80;;;21.50;99.90;;;;;;5005521;28;20030;-73
2021/07/31 10:02:15;;;;;;;5.00;1.77;;;21.30;99.90;;;;;;5004744;28;20097;-73
2021/07/31 10:04:41;;;;;;;3.67;2.30;;;21.70;99.90;;;;;;5002659;28;20148;-73
2021/07/31 10:07:07;;;;;;;5.40;2.20;;;22.20;99.90;;;;;;5005975;28;20030;-73
2021/07/31 10:09:34;;;;;;;2.60;1.58;;;22.10;99.90;;;;;;5006599;28;20034;-73
2021/07/31 10:12:02;;;;;;;3.50;1.70;;;21.60;99.90;;;;;;5008777;28;20017;-73
2021/07/31 10:14:27;;;;;;;3.60;1.80;;;22.10;99.90;;;;;;4994020;28;20036;-73
2021/07/31 10:16:55;;;;;;;5.28;1.95;;;22.10;99.90;;;;;;5004503;28;20037;-73
2021/07/31 10:19:21;;;;;;;2.88;1.52;;;21.70;99.90;;;;;;5005854;28;20033;-73
2021/07/31 10:21:58;;;;;;;6.25;3.45;;;21.70;99.90;;;;;;5004076;28;20030;-73
2021/07/31 10:24:24;;;;;;;2.55;1.70;;;21.80;99.90;;;;;;5006053;28;20025;-73
2021/07/31 10:27:15;;;;;;;4.63;1.70;;;21.70;99.90;;;;;;5005586;28;20026;-73
2021/07/31 10:29:45;;;;;;;3.47;1.80;;;21.60;99.90;;;;;;4997031;28;20029;-73
2021/07/31 10:32:40;;;;;;;6.65;2.38;;;21.40;99.90;;;;;;5010398;28;20036;-72
2021/07/31 10:35:16;;;;;;;3.90;1.55;;;21.10;99.90;;;;;;5005297;28;20042;-73
2021/07/31 10:37:44;;;;;;;5.05;1.98;;;20.80;99.90;;;;;;4993497;28;20089;-72
2021/07/31 10:40:33;;;;;;;2.97;1.60;;;20.80;99.90;;;;;;5001973;28;20088;-73
2021/07/31 10:42:58;;;;;;;4.07;1.95;;;20.80;99.90;;;;;;5002823;28;20014;-72
2021/07/31 10:45:29;;;;;;;3.20;1.88;;;21.20;99.90;;;;;;5005622;28;20388;-73
2021/07/31 10:47:59;;;;;;;3.90;2.20;;;20.90;99.90;;;;;;5009075;28;20153;-73
2021/07/31 10:50:25;;;;;;;4.82;1.90;;;20.70;99.90;;;;;;5005791;28;20026;-72
2021/07/31 10:52:51;;;;;;;5.18;1.92;;;20.60;99.90;;;;;;5004495;28;20025;-73
2021/07/31 10:55:18;;;;;;;4.40;1.90;;;20.70;99.90;;;;;;5006684;28;20030;-73
2021/07/31 10:57:52;;;;;;;4.60;1.90;;;20.80;99.90;;;;;;5004233;28;20026;-72
2021/07/31 11:00:24;;;;;;;4.95;2.10;;;20.80;99.90;;;;;;5008424;28;20097;-73
2021/07/31 11:02:50;;;;;;;2.28;1.55;;;20.60;99.90;;;;;;4997751;28;20022;-73
2021/07/31 11:05:16;;;;;;;3.78;1.73;;;20.90;99.90;;;;;;5001262;28;20413;-73
2021/07/31 11:07:57;;;;;;;8.77;1.70;;;21.10;99.90;;;;;;5007496;28;20018;-72
2021/07/31 11:10:42;;;;;;;2.90;1.80;;;21.00;99.90;;;;;;5002604;28;20381;-72
2021/07/31 11:13:08;;;;;;;3.10;1.95;;;21.90;99.90;;;;;;5006545;28;20022;-72
2021/07/31 11:15:34;;;;;;;2.95;1.70;;;22.10;99.90;;;;;;5005592;28;20435;-73
2021/07/31 11:18:01;;;;;;;5.57;2.00;;;22.30;99.90;;;;;;5011096;28;20033;-72
2021/07/31 11:20:37;;;;;;;4.65;1.85;;;21.90;99.90;;;;;;5002483;28;20028;-73
2021/07/31 11:23:06;;;;;;;2.63;1.60;;;21.80;99.90;;;;;;5005023;28;20036;-73
2021/07/31 11:25:32;;;;;;;4.13;1.60;;;21.70;99.90;;;;;;4991360;28;20035;-73
2021/07/31 11:28:00;;;;;;;3.10;1.77;;;21.50;99.90;;;;;;4993680;28;20026;-72
2021/07/31 11:30:47;;;;;;;5.32;2.10;;;21.60;99.90;;;;;;4993331;28;20382;-73
2021/07/31 11:33:21;;;;;;;3.88;1.70;;;22.00;99.90;;;;;;4993612;28;20481;-72
2021/07/31 11:35:58;;;;;;;4.97;1.85;;;21.80;99.90;;;;;;4993403;28;20116;-73
2021/07/31 11:38:34;;;;;;;4.30;1.80;;;21.80;99.90;;;;;;4999459;28;20425;-73
2021/07/31 11:41:11;;;;;;;2.53;2.05;;;21.90;99.90;;;;;;4993351;28;20113;-72
2021/07/31 11:43:52;;;;;;;3.67;1.83;;;21.90;99.90;;;;;;4991758;28;20108;-72
2021/07/31 11:46:29;;;;;;;6.25;1.52;;;21.80;99.90;;;;;;5002764;28;20485;-72
2021/07/31 11:48:56;;;;;;;4.03;1.65;;;21.70;99.90;;;;;;4990981;28;20453;-72
2021/07/31 11:51:22;;;;;;;3.70;1.85;;;21.60;99.90;;;;;;4991884;28;20022;-72
2021/07/31 11:53:49;;;;;;;2.53;1.83;;;21.60;99.90;;;;;;4994509;28;20644;-73
2021/07/31 11:56:20;;;;;;;6.65;1.80;;;21.70;99.90;;;;;;4993664;28;20034;-72
2021/07/31 11:58:47;;;;;;;4.93;1.83;;;21.80;99.90;;;;;;4989338;28;20119;-72
2021/07/31 12:01:14;;;;;;;3.53;1.70;;;21.50;99.90;;;;;;4992030;28;20022;-73
2021/07/31 12:03:50;;;;;;;3.03;2.03;;;21.50;99.90;;;;;;4989648;28;20027;-73
2021/07/31 12:06:39;;;;;;;3.35;2.03;;;21.80;99.90;;;;;;4992562;28;20018;-73
2021/07/31 12:09:26;;;;;;;4.43;2.10;;;22.10;99.90;;;;;;4991846;28;20114;-73
2021/07/31 12:11:57;;;;;;;6.53;2.05;;;22.30;99.90;;;;;;4991830;28;20026;-73
2021/07/31 12:14:41;;;;;;;4.80;2.00;;;22.40;99.90;;;;;;4991302;28;20023;-73
2021/07/31 12:17:19;;;;;;;4.80;1.70;;;23.00;99.90;;;;;;4988931;28;20033;-72
2021/07/31 12:19:56;;;;;;;4.38;1.95;;;23.10;99.90;;;;;;4992769;28;20022;-73
2021/07/31 12:22:36;;;;;;;4.68;1.73;;;23.50;99.90;;;;;;4980518;28;20029;-73
2021/07/31 12:25:19;;;;;;;6.32;1.98;;;23.60;99.90;;;;;;4992784;28;20396;-73
2021/07/31 12:28:06;;;;;;;3.50;1.70;;;24.00;99.90;;;;;;4990967;28;20030;-73
2021/07/31 12:30:35;;;;;;;5.72;2.10;;;23.80;99.90;;;;;;4992909;28;20026;-73
2021/07/31 12:33:06;;;;;;;4.03;2.10;;;23.50;99.90;;;;;;4992648;28;20027;-73
2021/07/31 12:35:35;;;;;;;4.78;1.95;;;24.00;99.90;;;;;;5001222;28;20092;-73
2021/07/31 12:38:01;;;;;;;4.40;2.33;;;23.80;99.90;;;;;;4996436;28;20030;-73
2021/07/31 12:40:28;;;;;;;3.75;1.65;;;24.20;99.90;;;;;;4991337;28;20210;-73
2021/07/31 12:42:54;;;;;;;3.50;2.00;;;24.00;99.90;;;;;;4989042;28;20038;-73
2021/07/31 12:45:19;;;;;;;2.85;1.90;;;24.10;99.90;;;;;;4998379;28;20024;-73
2021/07/31 12:47:45;;;;;;;3.30;1.90;;;23.30;99.90;;;;;;4992518;28;20567;-73
2021/07/31 12:50:10;;;;;;;4.70;1.90;;;24.10;99.90;;;;;;4991445;28;20270;-73